createdAt,value
2023-03-20T00:01:37.548Z,42.67
2023-03-20T00:04:18.326Z,46.05
2023-03-20T00:06:50.644Z,44.10
2023-03-20T00:09:23.829Z,44.08
2023-03-20T00:11:58.124Z,42.70
2023-03-20T00:14:36.680Z,48.38
2023-03-20T00:17:12.507Z,45.15
2023-03-20T00:19:41.725Z,46.25
2023-03-20T00:22:10.841Z,45.78
2023-03-20T00:24:43.872Z,44.33
2023-03-20T00:27:20.817Z,46.22
2023-03-20T00:29:52.065Z,46.10
2023-03-20T00:32:21.405Z,45.28
2023-03-20T00:34:54.493Z,46.40
2023-03-20T00:37:24.719Z,47.83
2023-03-20T00:39:55.604Z,44.35
2023-03-20T00:42:24.993Z,45.20
2023-03-20T00:44:59.726Z,44.88
2023-03-20T00:47:30.278Z,44.42
2023-03-20T00:50:05.712Z,43.38
2023-03-20T00:52:36.285Z,48.85
2023-03-20T00:55:07.445Z,43.45
2023-03-20T00:57:41.431Z,43.85
2023-03-20T01:00:22.312Z,42.05
2023-03-20T01:02:52.202Z,42.63
2023-03-20T01:05:21.945Z,48.95
2023-03-20T01:07:51.257Z,48.92
2023-03-20T01:10:23.824Z,51.00
2023-03-20T01:12:52.963Z,48.13
2023-03-20T01:15:24.868Z,45.05
2023-03-20T01:17:54.195Z,46.13
2023-03-20T01:20:25.193Z,45.08
2023-03-20T01:22:55.049Z,44.40
2023-03-20T01:25:26.166Z,42.03
2023-03-20T01:27:58.150Z,45.42
2023-03-20T01:30:30.441Z,46.10
2023-03-20T01:33:01.716Z,47.13
2023-03-20T01:35:32.221Z,43.55
2023-03-20T01:38:11.694Z,41.40
2023-03-20T01:40:52.273Z,44.83
2023-03-20T01:43:23.477Z,41.78
2023-03-20T01:46:03.089Z,44.72
2023-03-20T01:49:00.575Z,43.38
2023-03-20T01:51:33.134Z,48.95
2023-03-20T01:54:09.887Z,43.17
2023-03-20T01:56:53.678Z,40.05
2023-03-20T01:59:28.168Z,48.35
2023-03-20T02:01:58.251Z,41.92
2023-03-20T02:04:33.016Z,45.60
2023-03-20T02:07:17.407Z,43.22
2023-03-20T02:10:11.207Z,44.92
2023-03-20T02:15:32.391Z,43.40
2023-03-20T02:18:16.166Z,40.97
2023-03-20T02:20:59.259Z,40.17
2023-03-20T02:23:52.606Z,46.20
2023-03-20T02:26:45.419Z,42.05
2023-03-20T02:29:51.955Z,41.08
2023-03-20T02:33:03.365Z,47.47
2023-03-20T02:36:10.735Z,39.20
2023-03-20T02:39:04.781Z,37.15
2023-03-20T02:41:40.093Z,42.40
2023-03-20T02:44:15.170Z,38.15
2023-03-20T02:46:57.667Z,40.75
2023-03-20T02:49:53.409Z,42.35
2023-03-20T02:52:33.693Z,44.10
2023-03-20T02:55:16.152Z,44.38
2023-03-20T02:57:53.294Z,57.30
2023-03-20T03:00:29.758Z,52.58
2023-03-20T03:03:08.119Z,51.80
2023-03-20T03:05:43.071Z,53.88
2023-03-20T03:08:14.953Z,55.83
2023-03-20T03:10:49.218Z,60.55
2023-03-20T03:13:24.787Z,57.28
2023-03-20T03:15:59.020Z,56.58
2023-03-20T03:18:30.306Z,54.00
2023-03-20T03:21:03.516Z,50.33
2023-03-20T03:23:37.445Z,45.17
2023-03-20T03:26:11.127Z,49.58
2023-03-20T03:28:45.945Z,52.47
2023-03-20T03:31:20.010Z,48.78
2023-03-20T03:33:53.104Z,57.40
2023-03-20T03:36:34.957Z,54.88
2023-03-20T03:39:17.192Z,47.85
2023-03-20T03:41:52.080Z,52.90
2023-03-20T03:44:28.145Z,48.60
2023-03-20T03:47:00.717Z,50.33
2023-03-20T03:49:34.063Z,51.08
2023-03-20T03:52:09.537Z,51.10
2023-03-20T03:54:44.792Z,49.67
2023-03-20T03:57:37.866Z,51.10
2023-03-20T04:00:15.649Z,51.53
2023-03-20T04:02:51.639Z,50.42
2023-03-20T04:05:21.953Z,55.83
2023-03-20T04:07:56.675Z,48.83
2023-03-20T04:10:28.741Z,51.92
2023-03-20T04:12:59.060Z,52.47
2023-03-20T04:15:28.492Z,50.00
2023-03-20T04:17:58.397Z,49.55
2023-03-20T04:20:29.674Z,48.95
2023-03-20T04:22:58.802Z,47.60
2023-03-20T04:25:28.747Z,48.00
2023-03-20T04:28:00.933Z,49.30
2023-03-20T04:31:01.168Z,47.40
2023-03-20T04:33:56.363Z,51.28
2023-03-20T04:36:42.760Z,55.78
2023-03-20T04:39:14.707Z,56.95
2023-03-20T04:41:44.236Z,52.25
2023-03-20T04:44:14.720Z,52.00
2023-03-20T04:46:46.798Z,55.10
2023-03-20T04:49:19.372Z,50.90
2023-03-20T04:51:50.241Z,50.38
2023-03-20T04:54:29.233Z,49.05
2023-03-20T04:56:58.833Z,49.45
2023-03-20T04:59:29.543Z,49.15
2023-03-20T05:01:58.705Z,49.55
2023-03-20T05:04:28.713Z,54.88
2023-03-20T05:06:58.189Z,52.10
2023-03-20T05:09:34.425Z,53.40
2023-03-20T05:12:07.541Z,51.33
2023-03-20T05:15:11.290Z,51.67
2023-03-20T05:17:40.550Z,52.95
2023-03-20T05:20:11.223Z,47.22
2023-03-20T05:22:50.885Z,57.38
2023-03-20T05:25:38.996Z,52.78
2023-03-20T05:28:38.212Z,56.20
2023-03-20T05:31:27.116Z,55.15
2023-03-20T05:34:08.959Z,52.00
2023-03-20T05:37:05.636Z,49.55
2023-03-20T05:39:53.602Z,55.17
2023-03-20T05:42:40.565Z,49.85
2023-03-20T05:45:23.319Z,50.85
2023-03-20T05:48:12.346Z,53.97
2023-03-20T05:50:41.427Z,56.25
2023-03-20T05:53:22.904Z,74.93
2023-03-20T05:56:24.711Z,75.40
2023-03-20T05:59:12.921Z,78.18
2023-03-20T06:01:52.957Z,62.65
2023-03-20T06:04:28.456Z,56.42
2023-03-20T06:07:15.976Z,59.97
2023-03-20T06:09:50.758Z,61.90
2023-03-20T06:12:20.047Z,60.05
2023-03-20T06:14:50.319Z,58.70
2023-03-20T06:17:22.200Z,55.17
2023-03-20T06:19:57.525Z,53.25
2023-03-20T06:22:26.521Z,55.25
2023-03-20T06:24:57.475Z,50.65
2023-03-20T06:27:32.814Z,45.92
2023-03-20T06:30:02.795Z,49.47
2023-03-20T06:32:36.092Z,38.05
2023-03-20T06:35:10.190Z,38.20
2023-03-20T06:37:40.442Z,39.33
2023-03-20T06:40:17.835Z,41.88
2023-03-20T06:42:47.103Z,43.70
2023-03-20T06:45:20.427Z,43.92
2023-03-20T06:47:59.490Z,45.50
2023-03-20T06:50:30.665Z,42.72
2023-03-20T06:53:01.523Z,42.35
2023-03-20T06:55:45.187Z,43.35
2023-03-20T06:58:14.486Z,47.65
2023-03-20T07:00:43.779Z,44.13
2023-03-20T07:03:13.601Z,50.70
2023-03-20T07:05:49.777Z,53.35
2023-03-20T07:08:20.093Z,53.83
2023-03-20T07:10:52.144Z,52.58
2023-03-20T07:13:21.423Z,55.60
2023-03-20T07:16:04.452Z,67.32
2023-03-20T07:18:40.188Z,55.95
2023-03-20T07:21:12.382Z,56.00
2023-03-20T07:23:44.455Z,53.90
2023-03-20T07:26:16.102Z,52.85
2023-03-20T07:28:45.489Z,113.47
2023-03-20T07:31:25.906Z,58.92
2023-03-20T07:34:13.405Z,54.05
2023-03-20T07:36:45.573Z,52.83
2023-03-20T07:39:20.006Z,56.15
2023-03-20T07:42:00.660Z,56.25
2023-03-20T07:44:46.533Z,57.42
2023-03-20T07:47:16.264Z,53.47
2023-03-20T07:49:46.882Z,59.33
2023-03-20T07:52:19.959Z,56.15
2023-03-20T07:54:49.152Z,61.17
2023-03-20T07:57:18.452Z,59.00
2023-03-20T07:59:47.730Z,55.47
2023-03-20T08:02:17.268Z,57.55
2023-03-20T08:04:47.661Z,108.43
2023-03-20T08:07:18.728Z,59.70
2023-03-20T08:09:48.108Z,54.78
2023-03-20T08:12:20.115Z,51.28
2023-03-20T08:14:49.229Z,57.20
2023-03-20T08:17:21.218Z,51.78
2023-03-20T08:19:51.171Z,54.00
2023-03-20T08:22:21.970Z,48.10
2023-03-20T08:24:51.608Z,47.97
2023-03-20T08:27:21.245Z,48.88
2023-03-20T08:29:50.493Z,43.53
2023-03-20T08:32:20.336Z,39.47
2023-03-20T08:34:49.589Z,41.88
2023-03-20T08:37:19.159Z,38.70
2023-03-20T08:39:50.411Z,37.63
2023-03-20T08:42:19.655Z,31.63
2023-03-20T08:44:49.500Z,29.17
2023-03-20T08:47:19.036Z,28.65
2023-03-20T08:49:49.120Z,24.80
2023-03-20T08:52:18.446Z,34.10
2023-03-20T08:54:47.750Z,46.05
2023-03-20T08:57:18.381Z,20.00
2023-03-20T08:59:48.329Z,18.77
2023-03-20T09:02:17.689Z,18.05
2023-03-20T09:04:48.156Z,19.85
2023-03-20T09:07:25.650Z,18.63
2023-03-20T09:09:54.927Z,19.55
2023-03-20T09:12:25.763Z,14.40
2023-03-20T09:14:55.300Z,14.98
2023-03-20T09:17:24.858Z,118.50
2023-03-20T09:19:54.727Z,11.27
2023-03-20T09:22:24.295Z,15.40
2023-03-20T09:24:53.768Z,18.25
2023-03-20T09:27:23.005Z,11.40
2023-03-20T09:29:53.924Z,9.57
2023-03-20T09:32:28.729Z,10.80
2023-03-20T09:34:57.901Z,9.55
2023-03-20T09:37:27.176Z,11.10
2023-03-20T09:39:56.209Z,12.77
2023-03-20T09:42:37.952Z,12.50
2023-03-20T09:45:13.194Z,17.02
2023-03-20T09:47:48.891Z,16.38
2023-03-20T09:50:30.961Z,25.63
2023-03-20T09:53:07.299Z,19.00
2023-03-20T09:55:39.662Z,19.13
2023-03-20T09:58:16.438Z,27.38
2023-03-20T10:00:48.578Z,20.17
2023-03-20T10:03:22.477Z,24.40
2023-03-20T10:05:59.044Z,23.42
2023-03-20T10:08:31.972Z,42.92
2023-03-20T10:11:13.169Z,111.90
2023-03-20T10:14:00.868Z,38.20
2023-03-20T10:16:45.867Z,20.90
2023-03-20T10:19:23.145Z,17.08
2023-03-20T10:21:58.860Z,16.90
2023-03-20T10:24:31.129Z,16.45
2023-03-20T10:27:07.330Z,20.98
2023-03-20T10:29:48.096Z,19.92
2023-03-20T10:32:27.787Z,16.73
2023-03-20T10:35:10.911Z,19.40
2023-03-20T10:37:53.007Z,14.35
2023-03-20T10:40:27.755Z,16.50
2023-03-20T10:43:01.553Z,15.85
2023-03-20T10:45:40.002Z,17.77
2023-03-20T10:48:18.276Z,17.55
2023-03-20T10:50:51.542Z,15.85
2023-03-20T10:56:06.569Z,20.35
2023-03-20T10:58:41.506Z,21.58
2023-03-20T11:01:11.142Z,19.25
2023-03-20T11:03:42.011Z,18.15
2023-03-20T11:06:18.769Z,64.80
2023-03-20T11:08:52.363Z,31.98
2023-03-20T11:11:54.806Z,23.15
2023-03-20T11:14:28.680Z,20.35
2023-03-20T11:17:04.097Z,17.88
2023-03-20T11:19:37.660Z,20.02
2023-03-20T11:22:09.877Z,23.95
2023-03-20T11:24:42.446Z,20.93
2023-03-20T11:27:13.845Z,20.75
2023-03-20T11:29:47.470Z,19.75
2023-03-20T11:32:29.193Z,15.93
2023-03-20T11:35:22.615Z,17.90
2023-03-20T11:37:54.440Z,19.52
2023-03-20T11:40:25.621Z,18.17
2023-03-20T11:42:57.203Z,20.45
2023-03-20T11:45:27.426Z,20.27
2023-03-20T11:47:58.859Z,19.00
2023-03-20T11:50:34.065Z,21.98
2023-03-20T11:53:04.048Z,20.38
2023-03-20T11:55:35.053Z,18.95
2023-03-20T11:58:06.610Z,19.08
2023-03-20T12:00:40.128Z,20.35
2023-03-20T12:03:43.965Z,20.63
2023-03-20T12:06:19.808Z,22.08
2023-03-20T12:08:54.027Z,19.80
2023-03-20T12:11:40.940Z,21.63
2023-03-20T12:14:19.365Z,21.45
2023-03-20T12:16:54.138Z,20.23
2023-03-20T12:19:30.820Z,17.60
2023-03-20T12:22:13.307Z,21.70
2023-03-20T12:24:47.316Z,23.02
2023-03-20T12:27:22.364Z,18.75
2023-03-20T12:29:56.766Z,15.65
2023-03-20T12:32:29.553Z,18.50
2023-03-20T12:35:07.044Z,18.80
2023-03-20T12:37:38.030Z,19.52
2023-03-20T12:40:13.849Z,17.88
2023-03-20T12:42:57.835Z,16.80
2023-03-20T12:45:32.361Z,15.43
2023-03-20T12:48:22.602Z,16.63
2023-03-20T12:50:57.176Z,19.80
2023-03-20T12:53:38.917Z,18.67
2023-03-20T12:56:18.586Z,13.95
2023-03-20T12:58:54.867Z,17.38
2023-03-20T13:01:32.066Z,16.85
2023-03-20T13:04:27.733Z,16.25
2023-03-20T13:07:04.305Z,13.95
2023-03-20T13:10:01.489Z,12.57
2023-03-20T13:12:38.518Z,22.85
2023-03-20T13:15:24.058Z,13.80
2023-03-20T13:18:05.868Z,18.25
2023-03-20T13:20:37.903Z,14.90
2023-03-20T13:23:15.136Z,13.88
2023-03-20T13:26:03.859Z,14.82
2023-03-20T13:28:41.241Z,14.95
2023-03-20T13:31:25.003Z,15.75
2023-03-20T13:34:01.449Z,16.48
2023-03-20T13:36:47.123Z,20.42
2023-03-20T13:39:22.368Z,18.42
2023-03-20T13:41:58.815Z,16.98
2023-03-20T13:44:30.793Z,20.00
2023-03-20T13:47:05.050Z,19.02
2023-03-20T13:49:38.802Z,19.60
2023-03-20T13:52:14.879Z,25.60
2023-03-20T13:54:59.187Z,24.02
2023-03-20T13:57:59.795Z,25.80
2023-03-20T14:00:34.554Z,30.45
2023-03-20T14:03:20.396Z,25.73
2023-03-20T14:05:49.866Z,27.83
2023-03-20T14:08:38.368Z,29.50
2023-03-20T14:11:32.555Z,29.48
2023-03-20T14:14:09.012Z,25.13
2023-03-20T14:16:38.380Z,25.67
2023-03-20T14:19:13.363Z,24.80
2023-03-20T14:21:47.640Z,25.33
2023-03-20T14:24:20.376Z,24.88
2023-03-20T14:26:52.259Z,25.33
2023-03-20T14:29:34.049Z,24.50
2023-03-20T14:32:33.759Z,24.98
2023-03-20T14:35:23.057Z,25.02
2023-03-20T14:38:22.311Z,26.60
2023-03-20T14:41:02.320Z,26.35
2023-03-20T14:43:57.119Z,44.85
2023-03-20T14:46:40.644Z,39.25
2023-03-20T14:49:26.274Z,28.95
2023-03-20T14:52:01.809Z,28.17
2023-03-20T14:54:32.079Z,30.52
2023-03-20T14:57:11.957Z,28.10
2023-03-20T14:59:42.535Z,28.23
2023-03-20T15:02:27.735Z,31.73
2023-03-20T15:04:58.389Z,29.88
2023-03-20T15:07:30.569Z,28.33
2023-03-20T15:10:04.544Z,26.92
2023-03-20T15:12:37.516Z,27.38
2023-03-20T15:15:10.606Z,31.60
2023-03-20T15:17:45.597Z,27.40
2023-03-20T15:20:18.315Z,28.30
2023-03-20T15:22:52.097Z,31.08
2023-03-20T15:25:24.233Z,29.17
2023-03-20T15:27:55.501Z,33.22
2023-03-20T15:30:25.671Z,51.03
2023-03-20T15:33:00.404Z,33.03
2023-03-20T15:35:30.709Z,34.03
2023-03-20T15:38:06.202Z,36.60
2023-03-20T15:40:50.196Z,31.23
2023-03-20T15:43:22.996Z,36.58
2023-03-20T15:46:14.161Z,31.13
2023-03-20T15:48:48.948Z,33.17
2023-03-20T15:53:51.899Z,31.08
2023-03-20T15:56:25.720Z,37.78
2023-03-20T15:58:57.414Z,36.15
2023-03-20T16:01:28.045Z,33.58
2023-03-20T16:04:01.264Z,34.85
2023-03-20T16:06:30.692Z,33.53
2023-03-20T16:09:01.429Z,38.00
2023-03-20T16:11:39.348Z,34.80
2023-03-20T16:14:11.638Z,33.92
2023-03-20T16:16:41.208Z,33.47
2023-03-20T16:19:15.199Z,32.15
2023-03-20T16:21:49.783Z,41.70
2023-03-20T16:24:22.839Z,40.17
2023-03-20T16:26:54.629Z,39.15
2023-03-20T16:29:25.572Z,39.20
2023-03-20T16:31:58.973Z,38.75
2023-03-20T16:34:34.748Z,38.85
2023-03-20T16:37:09.432Z,38.38
2023-03-20T16:39:38.715Z,33.58
2023-03-20T16:42:20.480Z,36.20
2023-03-20T16:44:56.063Z,39.25
2023-03-20T16:47:34.441Z,41.10
2023-03-20T16:50:17.625Z,39.85
2023-03-20T16:52:50.643Z,43.00
2023-03-20T16:55:26.058Z,41.60
2023-03-20T16:58:01.883Z,41.47
2023-03-20T17:00:33.146Z,37.05
2023-03-20T17:03:11.004Z,44.58
2023-03-20T17:05:57.149Z,42.97
2023-03-20T17:08:32.793Z,45.45
2023-03-20T17:11:07.242Z,45.33
2023-03-20T17:13:39.361Z,43.33
2023-03-20T17:16:22.961Z,56.67
2023-03-20T17:19:01.756Z,46.78
2023-03-20T17:21:36.522Z,45.20
2023-03-20T17:24:07.059Z,45.33
2023-03-20T17:26:37.138Z,44.47
2023-03-20T17:29:06.964Z,41.50
2023-03-20T17:31:39.788Z,43.50
2023-03-20T17:34:44.323Z,48.80
2023-03-20T17:37:29.985Z,40.33
2023-03-20T17:40:03.580Z,42.42
2023-03-20T17:42:35.847Z,42.03
2023-03-20T17:45:06.069Z,42.72
2023-03-20T17:47:36.577Z,46.22
2023-03-20T17:50:07.310Z,39.40
2023-03-20T17:52:39.630Z,40.13
2023-03-20T17:55:10.396Z,48.45
2023-03-20T17:57:41.351Z,46.42
2023-03-20T18:00:17.025Z,41.60
2023-03-20T18:02:50.287Z,41.05
2023-03-20T18:05:22.100Z,41.33
2023-03-20T18:07:55.457Z,40.95
2023-03-20T18:10:30.696Z,41.88
2023-03-20T18:13:00.017Z,41.67
2023-03-20T18:15:30.021Z,44.78
2023-03-20T18:17:59.684Z,60.60
2023-03-20T18:20:31.898Z,58.13
2023-03-20T18:23:04.464Z,42.10
2023-03-20T18:25:38.627Z,37.40
2023-03-20T18:28:15.260Z,41.67
2023-03-20T18:30:45.354Z,39.85
2023-03-20T18:33:27.231Z,43.15
2023-03-20T18:35:57.845Z,44.38
2023-03-20T18:38:31.804Z,41.65
2023-03-20T18:41:05.487Z,41.47
2023-03-20T18:46:41.972Z,46.38
2023-03-20T18:49:18.211Z,44.88
2023-03-20T18:51:48.658Z,45.22
2023-03-20T18:54:19.917Z,46.10
2023-03-20T18:56:54.458Z,40.78
2023-03-20T18:59:26.330Z,41.20
2023-03-20T19:01:56.329Z,49.30
2023-03-20T19:04:28.941Z,42.77
2023-03-20T19:07:00.499Z,42.15
2023-03-20T19:09:56.549Z,42.33
2023-03-20T19:12:28.042Z,59.17
2023-03-20T19:14:57.791Z,48.40
2023-03-20T19:17:27.452Z,48.67
2023-03-20T19:19:58.022Z,51.60
2023-03-20T19:22:30.998Z,51.53
2023-03-20T19:25:04.603Z,47.97
2023-03-20T19:30:05.858Z,52.97
2023-03-20T19:32:39.205Z,54.53
2023-03-20T19:38:09.606Z,51.40
2023-03-20T19:41:02.665Z,51.25
2023-03-20T19:46:02.132Z,52.60
2023-03-20T19:48:51.227Z,55.10
2023-03-20T19:51:22.128Z,60.15
2023-03-20T19:53:52.189Z,53.45
2023-03-20T19:56:24.396Z,57.33
2023-03-20T19:58:55.917Z,59.90
2023-03-20T20:01:26.828Z,56.88
2023-03-20T20:04:02.740Z,61.50
2023-03-20T20:06:39.631Z,59.65
2023-03-20T20:09:21.498Z,59.55
2023-03-20T20:11:55.165Z,63.40
2023-03-20T20:16:56.363Z,62.05
2023-03-20T20:19:28.480Z,56.35
2023-03-20T20:24:50.658Z,62.70
2023-03-20T20:27:24.296Z,69.38
2023-03-20T20:29:56.332Z,59.15
2023-03-20T20:32:28.269Z,78.85
2023-03-20T20:40:45.608Z,66.80
2023-03-20T20:43:50.714Z,68.25
2023-03-20T20:46:29.333Z,71.97
2023-03-20T20:49:07.061Z,70.03
2023-03-20T20:51:48.160Z,76.18
2023-03-20T20:54:17.993Z,76.47
2023-03-20T20:56:47.206Z,70.90
2023-03-20T20:59:18.153Z,81.07
2023-03-20T21:01:48.968Z,77.47
2023-03-20T21:04:20.369Z,71.60
2023-03-20T21:07:09.787Z,77.80
2023-03-20T21:09:41.672Z,72.25
2023-03-20T21:12:30.519Z,74.65
2023-03-20T21:15:09.227Z,70.55
2023-03-20T21:17:47.257Z,71.75
2023-03-20T21:20:27.504Z,71.65
2023-03-20T21:22:56.685Z,77.35
2023-03-20T21:25:39.201Z,76.70
2023-03-20T21:28:10.581Z,75.35
2023-03-20T21:30:51.026Z,73.68
2023-03-20T21:33:27.127Z,73.97
2023-03-20T21:35:56.375Z,73.18
2023-03-20T21:39:01.930Z,81.35
2023-03-20T21:41:22.169Z,71.40
2023-03-20T21:43:54.096Z,75.63
2023-03-20T21:46:58.777Z,86.22
2023-03-20T21:50:07.852Z,70.15
2023-03-20T22:01:16.217Z,76.13
2023-03-20T22:03:42.115Z,75.05
2023-03-20T22:12:56.222Z,71.13
2023-03-20T22:15:34.014Z,66.50
2023-03-20T22:18:12.246Z,69.50
2023-03-20T22:24:20.428Z,71.43
2023-03-20T22:44:30.593Z,67.43
2023-03-20T22:46:22.712Z,64.72
2023-03-20T22:48:52.094Z,68.55
2023-03-20T22:51:28.617Z,68.50
2023-03-20T22:54:03.333Z,70.95
2023-03-20T22:56:35.448Z,68.47
2023-03-20T22:59:06.982Z,65.60
2023-03-20T23:01:36.687Z,69.28
2023-03-20T23:04:07.335Z,74.93
2023-03-20T23:06:36.929Z,78.75
2023-03-20T23:09:15.215Z,75.63
2023-03-20T23:11:44.680Z,68.05
2023-03-20T23:14:21.097Z,76.93
2023-03-20T23:16:55.803Z,71.97
2023-03-20T23:21:56.637Z,72.53
2023-03-20T23:24:27.465Z,70.95
2023-03-20T23:26:56.523Z,68.55
2023-03-20T23:29:25.991Z,78.15
2023-03-20T23:32:10.139Z,74.18
2023-03-20T23:34:40.041Z,72.82
2023-03-20T23:37:09.196Z,79.78
2023-03-20T23:39:43.522Z,81.28
2023-03-20T23:42:30.073Z,73.30
2023-03-20T23:45:07.125Z,76.47
2023-03-20T23:47:44.750Z,77.70
2023-03-20T23:50:26.524Z,76.85
2023-03-20T23:53:09.519Z,70.95
2023-03-20T23:55:44.691Z,76.93
2023-03-20T23:58:14.368Z,72.20
